sim
Sign-in with your pilot id or email,
or register
Callsign
Passwort

Schedule Details

Flight Number: RYR5797 (4)
Departure: Frankfurt Hahn Airport (EDFH) at 16:25
Arrival: Thessaloniki International Airport (LGTS) at 19:00
Route: Ryanair Passenger Schedule. Enter filed route here before submitting Pirep.

Weather Information
Getting current METAR information for EDFH 211050Z 29004KT 9999 SCT026 BKN040 08/04 Q1028
Getting current METAR information for LGTS 211050Z 34016KT CAVOK 16/M01 Q1023 NOSIG

Schedule Frequency

Route Map